Terminal Aerodrome Forecast
Issued by NWS

Current Version | Previous Version | Graphics & Text | Print | Product List | Glossary On
Versions: 1 2 3 4 5 6 7 8 9 10 11 12 13 14 15 16 17 18 19 20 21
000
FTUS41 KPBZ 301100
TAFHLG
TAF
KHLG 301138Z 3012/0112 00000KT 3SM BR SCT003
      TEMPO 3012/3013 1/4SM FG BKN002
     FM301400 23004KT P6SM SCT100
     FM301700 27006KT P6SM -SHRA BKN050
     FM302100 31005KT P6SM BKN040=

USA.gov is the U.S. government's official web portal to all federal, state and local government web resources and services.